Time;durP1;ratioP1;P1;durP2;ratioP2;P2;SDS_P1;SDS_P2;PMS_P1;PMS_P2;Temp;Humidity;BMP_temperature;BMP_pressure;BME280_temperature;BME280_humidity;BME280_pressure;Samples;Min_cycle;Max_cycle;Signal;HPM_P1;HPM_P2
2023/09/24 00:00:20;;;;;;;18.50;5.07;;;;;;;;;;2570085;23;20086;-93
2023/09/24 00:01:20;;;;;;;20.02;5.15;;;;;;;;;;2582816;23;20008;-94
2023/09/24 00:02:21;;;;;;;14.38;5.13;;;;;;;;;;2582954;23;20087;-93
2023/09/24 00:03:21;;;;;;;15.13;4.38;;;;;;;;;;2570429;23;20005;-93
2023/09/24 00:04:22;;;;;;;13.02;4.55;;;;;;;;;;2570248;23;20001;-94
2023/09/24 00:05:22;;;;;;;11.35;4.45;;;;;;;;;;2570345;23;20007;-95
2023/09/24 00:06:23;;;;;;;12.35;4.50;;;;;;;;;;2570425;23;20004;-93
2023/09/24 00:07:25;;;;;;;15.07;5.18;;;;;;;;;;2583080;23;20091;-93
2023/09/24 00:08:25;;;;;;;13.05;4.53;;;;;;;;;;2570328;23;20481;-93
2023/09/24 00:09:25;;;;;;;11.63;5.00;;;;;;;;;;2584212;23;20209;-93
2023/09/24 00:10:26;;;;;;;15.65;5.35;;;;;;;;;;2582952;23;20304;-94
2023/09/24 00:11:26;;;;;;;12.38;4.75;;;;;;;;;;2582552;23;20012;-94
2023/09/24 00:12:27;;;;;;;13.02;5.32;;;;;;;;;;2570218;23;20065;-93
2023/09/24 00:13:27;;;;;;;22.08;6.38;;;;;;;;;;2583964;23;20003;-93
2023/09/24 00:14:28;;;;;;;14.52;5.55;;;;;;;;;;2582898;23;20026;-93
2023/09/24 00:15:30;;;;;;;16.98;5.32;;;;;;;;;;2570516;23;20043;-94
2023/09/24 00:16:31;;;;;;;12.77;5.03;;;;;;;;;;2570618;23;20000;-93
2023/09/24 00:17:31;;;;;;;13.15;4.95;;;;;;;;;;2570192;23;20013;-93
2023/09/24 00:18:38;;;;;;;14.88;5.53;;;;;;;;;;2570472;23;20009;-93
2023/09/24 00:19:38;;;;;;;13.52;5.95;;;;;;;;;;2582733;23;20432;-94
2023/09/24 00:20:39;;;;;;;16.08;5.20;;;;;;;;;;2582761;23;20078;-93
2023/09/24 00:21:39;;;;;;;8.35;4.00;;;;;;;;;;2582756;23;20031;-93
2023/09/24 00:22:40;;;;;;;9.27;4.55;;;;;;;;;;2582749;23;20020;-93
2023/09/24 00:23:40;;;;;;;9.77;4.55;;;;;;;;;;2582863;23;20007;-94
2023/09/24 00:24:42;;;;;;;9.88;4.05;;;;;;;;;;2569989;23;20008;-93
2023/09/24 00:25:44;;;;;;;14.10;4.35;;;;;;;;;;2582596;23;20027;-93
2023/09/24 00:26:45;;;;;;;12.02;4.32;;;;;;;;;;2570154;23;20425;-94
2023/09/24 00:27:45;;;;;;;10.48;3.92;;;;;;;;;;2570015;23;20076;-93
2023/09/24 00:28:46;;;;;;;9.95;4.25;;;;;;;;;;2582980;23;20381;-94
2023/09/24 00:29:46;;;;;;;13.50;4.18;;;;;;;;;;2582770;23;20004;-94
2023/09/24 00:30:48;;;;;;;13.85;4.30;;;;;;;;;;2586640;23;20342;-94
2023/09/24 00:31:48;;;;;;;11.70;3.90;;;;;;;;;;2582475;23;20000;-93
2023/09/24 00:32:48;;;;;;;15.23;4.50;;;;;;;;;;2583254;23;20028;-94
2023/09/24 00:33:51;;;;;;;11.32;4.07;;;;;;;;;;2586521;23;20023;-93
2023/09/24 00:34:52;;;;;;;14.60;4.65;;;;;;;;;;2582523;23;20004;-94
2023/09/24 00:35:53;;;;;;;14.88;4.47;;;;;;;;;;2582537;23;20016;-93
2023/09/24 00:36:57;;;;;;;11.73;4.30;;;;;;;;;;2582488;23;20010;-93
2023/09/24 00:37:58;;;;;;;14.52;5.45;;;;;;;;;;2570785;23;20454;-93
2023/09/24 00:38:59;;;;;;;22.35;5.00;;;;;;;;;;2582935;23;20004;-94
2023/09/24 00:39:59;;;;;;;15.63;4.35;;;;;;;;;;2586188;22;20026;-94
2023/09/24 00:41:00;;;;;;;10.75;4.75;;;;;;;;;;2599185;22;20019;-92
2023/09/24 00:42:05;;;;;;;14.82;4.82;;;;;;;;;;2599420;22;20003;-92
2023/09/24 00:43:27;;;;;;;10.77;4.20;;;;;;;;;;2598992;22;20395;-93
2023/09/24 00:44:27;;;;;;;12.13;5.03;;;;;;;;;;2597349;22;20075;-94
2023/09/24 00:45:28;;;;;;;14.57;4.43;;;;;;;;;;2582907;23;20012;-93
2023/09/24 00:46:30;;;;;;;12.35;4.57;;;;;;;;;;2570066;23;20004;-93
2023/09/24 00:47:31;;;;;;;8.90;4.10;;;;;;;;;;2570412;23;20519;-93
2023/09/24 00:48:32;;;;;;;18.08;4.70;;;;;;;;;;2559528;23;20003;-93
2023/09/24 00:49:33;;;;;;;13.90;4.53;;;;;;;;;;2582942;23;20027;-93
2023/09/24 00:50:41;;;;;;;19.75;4.85;;;;;;;;;;2583838;22;20473;-93
2023/09/24 00:51:42;;;;;;;16.13;4.90;;;;;;;;;;2600294;22;19995;-93
2023/09/24 00:52:44;;;;;;;16.80;5.28;;;;;;;;;;2582875;23;20074;-92
2023/09/24 00:53:46;;;;;;;12.90;5.18;;;;;;;;;;2582404;23;20027;-93
2023/09/24 00:54:46;;;;;;;13.90;5.07;;;;;;;;;;2586679;22;19996;-93
2023/09/24 00:55:47;;;;;;;12.88;5.25;;;;;;;;;;2582494;23;20007;-93
2023/09/24 00:56:49;;;;;;;14.70;5.00;;;;;;;;;;2569768;23;20090;-92
2023/09/24 00:57:50;;;;;;;14.27;5.45;;;;;;;;;;2570349;23;20036;-92
2023/09/24 00:58:52;;;;;;;12.65;6.05;;;;;;;;;;2569329;23;20369;-94
2023/09/24 00:59:55;;;;;;;10.73;5.35;;;;;;;;;;2570023;23;20001;-93
2023/09/24 01:00:57;;;;;;;13.30;5.22;;;;;;;;;;2582328;23;20004;-93
2023/09/24 01:01:59;;;;;;;13.32;5.55;;;;;;;;;;2583374;22;20431;-93
2023/09/24 01:03:00;;;;;;;12.20;4.72;;;;;;;;;;2583720;23;20453;-93
2023/09/24 01:04:08;;;;;;;13.65;5.38;;;;;;;;;;2585733;23;20000;-91
2023/09/24 01:05:10;;;;;;;10.15;4.72;;;;;;;;;;2573929;23;20020;-93
2023/09/24 01:06:10;;;;;;;13.52;4.57;;;;;;;;;;2571431;23;20011;-92
2023/09/24 01:07:11;;;;;;;11.70;5.13;;;;;;;;;;2582095;23;20480;-93
2023/09/24 01:08:11;;;;;;;13.82;5.78;;;;;;;;;;2572168;23;19993;-93
2023/09/24 01:09:13;;;;;;;15.20;4.97;;;;;;;;;;2569959;23;20342;-94
2023/09/24 01:10:14;;;;;;;15.23;5.93;;;;;;;;;;2582221;23;20032;-93
2023/09/24 01:11:15;;;;;;;14.05;5.00;;;;;;;;;;2582867;23;20096;-93
2023/09/24 01:12:22;;;;;;;15.13;5.35;;;;;;;;;;2569598;23;20001;-92
2023/09/24 01:13:23;;;;;;;12.02;5.07;;;;;;;;;;2571446;23;20051;-94
2023/09/24 01:14:25;;;;;;;14.85;5.40;;;;;;;;;;2582246;23;20028;-93
2023/09/24 01:15:25;;;;;;;14.32;5.45;;;;;;;;;;2582358;23;20094;-94
2023/09/24 01:16:26;;;;;;;13.95;5.25;;;;;;;;;;2569996;23;20382;-92
2023/09/24 01:17:27;;;;;;;9.55;4.57;;;;;;;;;;2569942;23;20015;-93
2023/09/24 01:18:27;;;;;;;14.98;5.63;;;;;;;;;;2569954;23;20008;-93
2023/09/24 01:19:29;;;;;;;12.25;5.10;;;;;;;;;;2570500;23;20023;-93
2023/09/24 01:20:31;;;;;;;14.55;5.20;;;;;;;;;;2570317;23;20004;-93
2023/09/24 01:21:32;;;;;;;9.00;4.32;;;;;;;;;;2570307;23;20056;-93
2023/09/24 01:22:32;;;;;;;10.50;3.75;;;;;;;;;;2582296;23;20004;-93
2023/09/24 01:23:36;;;;;;;14.50;4.45;;;;;;;;;;2569560;23;20013;-92
2023/09/24 01:24:37;;;;;;;10.88;5.00;;;;;;;;;;2572577;23;20084;-93
2023/09/24 01:25:37;;;;;;;8.68;4.57;;;;;;;;;;2574128;23;20023;-93
2023/09/24 01:26:38;;;;;;;12.48;4.47;;;;;;;;;;2585500;23;20011;-94
2023/09/24 01:27:38;;;;;;;11.80;3.92;;;;;;;;;;2586493;23;20022;-93
2023/09/24 01:28:39;;;;;;;18.38;4.50;;;;;;;;;;2586920;23;20012;-93
2023/09/24 01:29:40;;;;;;;9.48;4.32;;;;;;;;;;2574306;23;20081;-93
2023/09/24 01:30:41;;;;;;;14.02;4.30;;;;;;;;;;2574752;23;20019;-93
2023/09/24 01:31:41;;;;;;;13.23;4.35;;;;;;;;;;2593290;23;20011;-94
2023/09/24 01:32:42;;;;;;;14.23;4.07;;;;;;;;;;2602062;22;19992;-94
2023/09/24 01:33:43;;;;;;;12.70;4.30;;;;;;;;;;2606205;22;19995;-93
2023/09/24 01:34:45;;;;;;;12.57;4.40;;;;;;;;;;2588169;23;20059;-92
2023/09/24 01:35:46;;;;;;;11.25;4.60;;;;;;;;;;2589697;23;20004;-93
2023/09/24 01:36:46;;;;;;;10.77;4.45;;;;;;;;;;2592118;23;20002;-94
2023/09/24 01:37:47;;;;;;;13.35;4.38;;;;;;;;;;2586322;23;19988;-94
2023/09/24 01:38:47;;;;;;;15.18;5.13;;;;;;;;;;2569986;23;20320;-93
2023/09/24 01:39:50;;;;;;;7.65;4.80;;;;;;;;;;2569915;23;20035;-94
2023/09/24 01:40:51;;;;;;;15.20;4.28;;;;;;;;;;2586134;23;19996;-94
2023/09/24 01:41:51;;;;;;;13.55;4.03;;;;;;;;;;2569993;23;19996;-94
2023/09/24 01:42:55;;;;;;;13.52;4.65;;;;;;;;;;2569831;23;20451;-94
2023/09/24 01:43:58;;;;;;;10.50;4.07;;;;;;;;;;2582302;23;19992;-92
2023/09/24 01:44:59;;;;;;;12.68;5.20;;;;;;;;;;2582353;23;19999;-93
2023/09/24 01:45:59;;;;;;;11.70;4.30;;;;;;;;;;2570070;23;20269;-95
2023/09/24 01:47:01;;;;;;;9.02;4.30;;;;;;;;;;2569992;23;20029;-92
2023/09/24 01:48:03;;;;;;;15.25;4.72;;;;;;;;;;2570264;23;20012;-93
2023/09/24 01:49:04;;;;;;;15.07;4.78;;;;;;;;;;2585361;23;20011;-94
2023/09/24 01:50:08;;;;;;;19.42;4.82;;;;;;;;;;2582639;23;20015;-95
2023/09/24 01:51:11;;;;;;;13.25;4.93;;;;;;;;;;2582522;23;20004;-94
2023/09/24 01:52:13;;;;;;;8.43;4.88;;;;;;;;;;2575516;23;20070;-94
2023/09/24 01:53:14;;;;;;;13.07;4.80;;;;;;;;;;2564590;23;20005;-94
2023/09/24 01:54:14;;;;;;;14.93;4.63;;;;;;;;;;2557707;23;20329;-93
2023/09/24 01:55:16;;;;;;;13.65;4.95;;;;;;;;;;2569899;23;20466;-93
2023/09/24 01:56:18;;;;;;;13.85;4.55;;;;;;;;;;2582592;22;20008;-92
2023/09/24 01:57:18;;;;;;;20.38;5.57;;;;;;;;;;2582467;23;20011;-93
2023/09/24 01:58:19;;;;;;;12.77;5.00;;;;;;;;;;2584843;22;20011;-93
2023/09/24 01:59:20;;;;;;;14.75;5.10;;;;;;;;;;2582425;23;20540;-91
2023/09/24 02:00:25;;;;;;;8.77;5.10;;;;;;;;;;2569747;23;20008;-93
2023/09/24 02:01:25;;;;;;;10.10;4.70;;;;;;;;;;2570838;23;20013;-92
2023/09/24 02:02:26;;;;;;;12.30;5.15;;;;;;;;;;2569742;23;20087;-93
2023/09/24 02:03:26;;;;;;;11.60;4.70;;;;;;;;;;2582041;23;20007;-92
2023/09/24 02:04:27;;;;;;;14.77;5.10;;;;;;;;;;2569675;23;20008;-92
2023/09/24 02:05:34;;;;;;;9.07;4.88;;;;;;;;;;2569673;23;20358;-94
2023/09/24 02:06:34;;;;;;;10.48;4.90;;;;;;;;;;2571074;23;20009;-92
2023/09/24 02:07:38;;;;;;;11.82;5.10;;;;;;;;;;2569905;23;20008;-93
2023/09/24 02:08:38;;;;;;;11.70;4.97;;;;;;;;;;2570093;23;20095;-93
2023/09/24 02:09:39;;;;;;;8.85;4.57;;;;;;;;;;2569401;23;20009;-93
2023/09/24 02:10:41;;;;;;;10.35;4.43;;;;;;;;;;2585443;23;20003;-93
2023/09/24 02:11:41;;;;;;;13.05;5.20;;;;;;;;;;2587564;23;20008;-93
2023/09/24 02:12:42;;;;;;;14.23;4.47;;;;;;;;;;2577065;23;20004;-92
2023/09/24 02:13:42;;;;;;;19.77;6.55;;;;;;;;;;2579562;23;20015;-92
2023/09/24 02:14:43;;;;;;;12.02;4.90;;;;;;;;;;2569666;23;20000;-93
2023/09/24 02:15:44;;;;;;;8.32;4.70;;;;;;;;;;2582400;23;20007;-92
2023/09/24 02:16:45;;;;;;;11.27;4.40;;;;;;;;;;2569268;23;20012;-92
2023/09/24 02:17:50;;;;;;;13.30;5.22;;;;;;;;;;2569621;23;20023;-93
2023/09/24 02:18:50;;;;;;;12.38;4.53;;;;;;;;;;2585699;22;20445;-93
2023/09/24 02:19:54;;;;;;;10.70;4.60;;;;;;;;;;2584050;23;19996;-93
2023/09/24 02:20:56;;;;;;;8.60;4.53;;;;;;;;;;2586042;23;19992;-92
2023/09/24 02:21:57;;;;;;;14.73;4.38;;;;;;;;;;2586622;23;19992;-93
2023/09/24 02:23:00;;;;;;;13.45;4.53;;;;;;;;;;2590259;23;19996;-92
2023/09/24 02:24:01;;;;;;;10.30;4.30;;;;;;;;;;2587792;23;20019;-92
2023/09/24 02:25:02;;;;;;;11.45;4.97;;;;;;;;;;2591622;23;20012;-92
2023/09/24 02:26:02;;;;;;;8.60;4.45;;;;;;;;;;2588833;23;20064;-93
2023/09/24 02:27:04;;;;;;;10.18;5.18;;;;;;;;;;2588531;23;20377;-93
2023/09/24 02:28:04;;;;;;;11.38;4.53;;;;;;;;;;2576267;23;20504;-93
2023/09/24 02:29:05;;;;;;;9.43;4.50;;;;;;;;;;2576568;23;20078;-92
2023/09/24 02:30:06;;;;;;;11.80;4.50;;;;;;;;;;2589704;23;20019;-94
2023/09/24 02:31:11;;;;;;;12.60;4.68;;;;;;;;;;2588933;23;20047;-94
2023/09/24 02:32:12;;;;;;;20.80;5.00;;;;;;;;;;2591388;22;20027;-93
2023/09/24 02:33:13;;;;;;;9.73;4.75;;;;;;;;;;2603863;22;19999;-94
2023/09/24 02:34:13;;;;;;;10.52;4.93;;;;;;;;;;2602795;22;20010;-93
2023/09/24 02:35:15;;;;;;;15.15;5.00;;;;;;;;;;2598533;22;20006;-93
2023/09/24 02:36:15;;;;;;;10.65;4.40;;;;;;;;;;2582666;23;20007;-93
2023/09/24 02:37:15;;;;;;;12.30;5.35;;;;;;;;;;2571096;23;20458;-92
2023/09/24 02:38:16;;;;;;;12.82;5.05;;;;;;;;;;2583080;23;20008;-92
2023/09/24 02:39:16;;;;;;;12.20;5.40;;;;;;;;;;2572757;23;20052;-90
2023/09/24 02:40:21;;;;;;;13.70;5.30;;;;;;;;;;2586011;23;19996;-92
2023/09/24 02:41:21;;;;;;;12.23;5.45;;;;;;;;;;2583524;23;20083;-93
2023/09/24 02:42:22;;;;;;;12.80;5.30;;;;;;;;;;2570586;23;20004;-92
2023/09/24 02:43:23;;;;;;;14.07;5.43;;;;;;;;;;2569852;23;20009;-95
2023/09/24 02:44:23;;;;;;;15.95;4.95;;;;;;;;;;2582239;23;20008;-94
2023/09/24 02:45:26;;;;;;;11.90;6.05;;;;;;;;;;2572242;23;20028;-92
2023/09/24 02:46:27;;;;;;;11.18;5.40;;;;;;;;;;2578068;23;20143;-93
2023/09/24 02:47:28;;;;;;;12.13;5.47;;;;;;;;;;2592645;23;20008;-93
2023/09/24 02:48:28;;;;;;;9.65;5.30;;;;;;;;;;2578985;23;20084;-90
2023/09/24 02:49:28;;;;;;;11.32;5.82;;;;;;;;;;2579795;23;20000;-92
2023/09/24 02:50:29;;;;;;;12.50;5.45;;;;;;;;;;2595392;22;19993;-93
2023/09/24 02:51:29;;;;;;;12.48;5.82;;;;;;;;;;2594097;22;20000;-93
2023/09/24 02:52:30;;;;;;;14.13;5.85;;;;;;;;;;2581718;23;20081;-93
2023/09/24 02:53:30;;;;;;;7.93;5.40;;;;;;;;;;2580099;23;19996;-92
2023/09/24 02:54:30;;;;;;;14.23;5.70;;;;;;;;;;2583751;23;20042;-90
2023/09/24 02:55:31;;;;;;;11.07;5.40;;;;;;;;;;2583412;23;20540;-93
2023/09/24 02:56:32;;;;;;;14.80;6.15;;;;;;;;;;2581319;23;20008;-91
2023/09/24 02:57:32;;;;;;;8.18;5.18;;;;;;;;;;2582134;23;20000;-90
2023/09/24 02:58:33;;;;;;;12.57;5.22;;;;;;;;;;2580735;23;20004;-90
2023/09/24 02:59:34;;;;;;;14.00;5.25;;;;;;;;;;2581550;23;20028;-90
2023/09/24 03:00:36;;;;;;;13.27;5.88;;;;;;;;;;2580737;23;20087;-91
2023/09/24 03:01:36;;;;;;;11.88;5.05;;;;;;;;;;2568701;23;20143;-90
2023/09/24 03:02:38;;;;;;;13.27;5.05;;;;;;;;;;2568441;23;20075;-90
2023/09/24 03:03:38;;;;;;;13.20;5.20;;;;;;;;;;2581435;22;20008;-90
2023/09/24 03:04:40;;;;;;;13.20;5.20;;;;;;;;;;2580927;23;20027;-91
2023/09/24 03:05:40;;;;;;;10.48;5.05;;;;;;;;;;2568339;23;20009;-90
2023/09/24 03:06:41;;;;;;;9.20;5.38;;;;;;;;;;2580606;23;20011;-90
2023/09/24 03:07:44;;;;;;;12.63;5.20;;;;;;;;;;2580821;23;20004;-90
2023/09/24 03:08:49;;;;;;;10.95;5.47;;;;;;;;;;2568683;23;20366;-90
2023/09/24 03:09:49;;;;;;;8.82;4.70;;;;;;;;;;2584398;23;20003;-90
2023/09/24 03:10:51;;;;;;;13.85;5.60;;;;;;;;;;2584379;23;20016;-89
2023/09/24 03:11:52;;;;;;;13.63;5.13;;;;;;;;;;2580648;23;20026;-90
2023/09/24 03:12:54;;;;;;;12.55;4.75;;;;;;;;;;2568396;23;19996;-92
2023/09/24 03:13:55;;;;;;;13.75;5.30;;;;;;;;;;2568638;23;19997;-91
2023/09/24 03:14:55;;;;;;;11.50;4.63;;;;;;;;;;2584073;23;19999;-91
2023/09/24 03:15:55;;;;;;;11.20;5.18;;;;;;;;;;2597392;22;19999;-89
2023/09/24 03:16:56;;;;;;;15.20;5.10;;;;;;;;;;2580858;23;20085;-92
2023/09/24 03:17:56;;;;;;;13.68;6.00;;;;;;;;;;2568015;23;20007;-92
2023/09/24 03:18:57;;;;;;;12.98;4.95;;;;;;;;;;2584463;23;20054;-90
2023/09/24 03:19:57;;;;;;;10.48;4.95;;;;;;;;;;2582724;23;19992;-91
2023/09/24 03:20:58;;;;;;;15.45;5.30;;;;;;;;;;2582203;23;20000;-91
2023/09/24 03:21:59;;;;;;;12.00;5.25;;;;;;;;;;2580940;23;19993;-92
2023/09/24 03:23:08;;;;;;;13.05;5.53;;;;;;;;;;2568320;23;20326;-91
2023/09/24 03:24:11;;;;;;;15.52;5.40;;;;;;;;;;2585156;22;20384;-91
2023/09/24 03:25:12;;;;;;;12.43;5.32;;;;;;;;;;2596463;22;20019;-91
2023/09/24 03:26:16;;;;;;;11.30;5.57;;;;;;;;;;2596446;22;20004;-92
2023/09/24 03:27:16;;;;;;;10.80;5.70;;;;;;;;;;2580911;23;20090;-91
2023/09/24 03:28:16;;;;;;;10.45;5.57;;;;;;;;;;2568389;23;20346;-91
2023/09/24 03:29:17;;;;;;;15.38;6.00;;;;;;;;;;2568373;23;20091;-90
2023/09/24 03:30:18;;;;;;;12.32;5.65;;;;;;;;;;2580733;23;20000;-91
2023/09/24 03:31:18;;;;;;;13.65;5.90;;;;;;;;;;2581182;23;20019;-91
2023/09/24 03:32:19;;;;;;;12.73;6.50;;;;;;;;;;2569072;23;20108;-91
2023/09/24 03:33:19;;;;;;;16.95;5.90;;;;;;;;;;2569056;23;20465;-91
2023/09/24 03:34:20;;;;;;;16.48;5.80;;;;;;;;;;2581647;23;20016;-91
2023/09/24 03:35:23;;;;;;;12.50;5.90;;;;;;;;;;2569113;23;20070;-91
2023/09/24 03:36:24;;;;;;;12.88;5.90;;;;;;;;;;2582270;22;20004;-90
2023/09/24 03:37:24;;;;;;;16.08;6.03;;;;;;;;;;2581851;23;20015;-90
2023/09/24 03:38:25;;;;;;;11.10;5.78;;;;;;;;;;2568484;23;20505;-90
2023/09/24 03:39:25;;;;;;;17.02;5.57;;;;;;;;;;2582750;23;20000;-91
2023/09/24 03:40:27;;;;;;;12.10;5.60;;;;;;;;;;2596299;22;19999;-91
2023/09/24 03:41:28;;;;;;;16.67;5.93;;;;;;;;;;2581258;23;20094;-90
2023/09/24 03:42:28;;;;;;;13.18;5.85;;;;;;;;;;2569163;23;20099;-90
2023/09/24 03:43:29;;;;;;;9.57;5.50;;;;;;;;;;2568910;23;20009;-89
2023/09/24 03:44:30;;;;;;;14.90;5.70;;;;;;;;;;2582837;22;20156;-90
2023/09/24 03:45:30;;;;;;;10.75;5.78;;;;;;;;;;2581560;23;20454;-91
2023/09/24 03:46:30;;;;;;;14.57;6.32;;;;;;;;;;2582574;23;20099;-90
2023/09/24 03:47:31;;;;;;;11.30;5.95;;;;;;;;;;2581502;23;20004;-90
2023/09/24 03:48:31;;;;;;;10.98;5.75;;;;;;;;;;2569177;23;20503;-92
2023/09/24 03:49:32;;;;;;;14.80;6.18;;;;;;;;;;2582482;23;20006;-90
2023/09/24 03:50:42;;;;;;;13.71;6.22;;;;;;;;;;2530772;23;10254098;-91
2023/09/24 03:51:43;;;;;;;17.15;7.18;;;;;;;;;;2587937;22;20776;-91
2023/09/24 03:52:45;;;;;;;12.38;7.22;;;;;;;;;;2599324;22;19991;-92
2023/09/24 03:53:45;;;;;;;15.65;7.72;;;;;;;;;;2581657;23;19996;-91
2023/09/24 03:54:45;;;;;;;17.38;6.78;;;;;;;;;;2581487;23;20058;-91
2023/09/24 03:55:47;;;;;;;12.27;6.85;;;;;;;;;;2581456;23;20000;-91
2023/09/24 03:56:48;;;;;;;13.27;7.00;;;;;;;;;;2585229;23;20004;-91
2023/09/24 03:57:49;;;;;;;12.32;6.97;;;;;;;;;;2568837;23;20004;-91
2023/09/24 03:58:49;;;;;;;13.85;7.30;;;;;;;;;;2569213;23;20008;-91
2023/09/24 03:59:50;;;;;;;12.65;7.00;;;;;;;;;;2569208;23;19993;-91
2023/09/24 04:00:50;;;;;;;12.90;7.60;;;;;;;;;;2569589;23;20008;-91
2023/09/24 04:01:51;;;;;;;13.27;8.77;;;;;;;;;;2569209;23;20441;-90
2023/09/24 04:02:51;;;;;;;17.35;7.47;;;;;;;;;;2581751;23;20012;-91
2023/09/24 04:03:51;;;;;;;17.45;8.02;;;;;;;;;;2568742;23;20027;-90
2023/09/24 04:04:52;;;;;;;14.57;7.47;;;;;;;;;;2585334;23;19996;-90
2023/09/24 04:05:53;;;;;;;16.77;7.43;;;;;;;;;;2598565;22;19999;-90
2023/09/24 04:06:53;;;;;;;17.35;8.57;;;;;;;;;;2581902;23;20004;-93
2023/09/24 04:07:55;;;;;;;19.77;8.10;;;;;;;;;;2568974;23;20023;-91
2023/09/24 04:08:55;;;;;;;20.85;7.75;;;;;;;;;;2569144;23;20033;-92
2023/09/24 04:09:57;;;;;;;15.35;8.07;;;;;;;;;;2568911;23;20031;-92
2023/09/24 04:10:57;;;;;;;18.45;8.38;;;;;;;;;;2585314;23;20394;-92
2023/09/24 04:11:58;;;;;;;14.90;7.28;;;;;;;;;;2581729;23;20004;-92
2023/09/24 04:12:59;;;;;;;13.40;6.78;;;;;;;;;;2568753;23;20302;-89
2023/09/24 04:14:00;;;;;;;10.93;7.07;;;;;;;;;;2581590;22;20030;-92
2023/09/24 04:15:05;;;;;;;13.55;7.07;;;;;;;;;;2597278;22;20317;-91
2023/09/24 04:16:10;;;;;;;16.95;6.80;;;;;;;;;;2600139;22;20433;-89
2023/09/24 04:17:10;;;;;;;14.52;7.03;;;;;;;;;;2596540;22;20058;-92
2023/09/24 04:18:11;;;;;;;11.70;6.63;;;;;;;;;;2582437;23;20004;-91
2023/09/24 04:19:11;;;;;;;13.27;6.95;;;;;;;;;;2569121;23;20170;-92
2023/09/24 04:20:15;;;;;;;13.13;6.75;;;;;;;;;;2568741;23;20508;-91
2023/09/24 04:21:17;;;;;;;16.38;7.25;;;;;;;;;;2569923;23;20005;-91
2023/09/24 04:22:18;;;;;;;13.18;7.15;;;;;;;;;;2583634;22;20007;-91
2023/09/24 04:23:18;;;;;;;14.02;7.28;;;;;;;;;;2596548;22;20489;-91
2023/09/24 04:24:20;;;;;;;11.63;7.70;;;;;;;;;;2596635;22;20004;-91
2023/09/24 04:25:23;;;;;;;12.45;7.22;;;;;;;;;;2581278;23;20455;-91
2023/09/24 04:26:25;;;;;;;13.23;6.72;;;;;;;;;;2581350;23;20115;-90
2023/09/24 04:27:25;;;;;;;14.52;7.68;;;;;;;;;;2581636;22;20354;-91
2023/09/24 04:28:26;;;;;;;17.50;8.32;;;;;;;;;;2581538;23;20095;-92
2023/09/24 04:29:26;;;;;;;16.05;7.50;;;;;;;;;;2582287;23;20005;-91
2023/09/24 04:30:27;;;;;;;13.93;7.63;;;;;;;;;;2594208;22;20011;-91
2023/09/24 04:31:27;;;;;;;12.57;7.53;;;;;;;;;;2595393;22;20373;-91
2023/09/24 04:32:28;;;;;;;13.90;8.32;;;;;;;;;;2581483;23;20106;-91
2023/09/24 04:33:29;;;;;;;17.90;8.50;;;;;;;;;;2581383;23;20012;-91
2023/09/24 04:34:30;;;;;;;16.85;8.63;;;;;;;;;;2581505;22;20020;-90
2023/09/24 04:35:30;;;;;;;14.27;8.32;;;;;;;;;;2595228;22;19999;-91
2023/09/24 04:36:30;;;;;;;14.43;7.75;;;;;;;;;;2581419;23;20001;-91
2023/09/24 04:37:31;;;;;;;13.60;8.00;;;;;;;;;;2582050;23;20150;-91
2023/09/24 04:38:31;;;;;;;11.43;8.50;;;;;;;;;;2581387;23;20011;-91
2023/09/24 04:39:32;;;;;;;17.27;8.43;;;;;;;;;;2581595;23;20008;-91
2023/09/24 04:40:33;;;;;;;17.42;8.45;;;;;;;;;;2581677;23;20102;-91
2023/09/24 04:41:34;;;;;;;14.10;8.40;;;;;;;;;;2581523;23;20008;-91
2023/09/24 04:42:34;;;;;;;13.45;8.77;;;;;;;;;;2568870;23;20008;-91
2023/09/24 04:43:35;;;;;;;13.85;8.30;;;;;;;;;;2569044;23;20035;-91
2023/09/24 04:44:37;;;;;;;13.00;8.13;;;;;;;;;;2581095;23;20077;-90
2023/09/24 04:45:38;;;;;;;14.60;9.07;;;;;;;;;;2581438;23;20003;-91
2023/09/24 04:46:38;;;;;;;13.95;8.55;;;;;;;;;;2581523;23;20496;-90
2023/09/24 04:47:40;;;;;;;15.32;8.48;;;;;;;;;;2581365;23;20012;-90
2023/09/24 04:48:40;;;;;;;19.60;9.90;;;;;;;;;;2139214;23;10256657;-91
2023/09/24 04:49:40;;;;;;;16.88;9.07;;;;;;;;;;2581458;23;20130;-90
2023/09/24 04:50:41;;;;;;;15.85;9.40;;;;;;;;;;2581446;23;20105;-90
2023/09/24 04:51:42;;;;;;;18.60;8.77;;;;;;;;;;2569257;23;20342;-91
2023/09/24 04:52:45;;;;;;;13.13;8.55;;;;;;;;;;2568778;23;20023;-90
2023/09/24 04:53:45;;;;;;;15.63;8.30;;;;;;;;;;2581280;23;20457;-91
2023/09/24 04:54:46;;;;;;;17.60;9.27;;;;;;;;;;2568721;23;20024;-91
2023/09/24 04:55:46;;;;;;;16.02;8.57;;;;;;;;;;2581191;23;20442;-91
2023/09/24 04:56:47;;;;;;;16.42;9.13;;;;;;;;;;2141237;22;10490455;-90
2023/09/24 04:57:47;;;;;;;16.98;9.15;;;;;;;;;;2581278;23;20521;-91
2023/09/24 04:58:47;;;;;;;16.15;9.05;;;;;;;;;;2585125;23;20368;-90
2023/09/24 04:59:53;;;;;;;14.57;8.93;;;;;;;;;;2581225;23;19996;-91
2023/09/24 05:01:02;;;;;;;15.80;8.90;;;;;;;;;;2569663;23;20468;-90
2023/09/24 05:02:03;;;;;;;14.13;8.85;;;;;;;;;;2581548;23;20471;-91
2023/09/24 05:03:03;;;;;;;12.27;8.68;;;;;;;;;;2584128;23;20000;-90
2023/09/24 05:04:04;;;;;;;14.38;9.15;;;;;;;;;;2581602;23;20008;-90
2023/09/24 05:05:08;;;;;;;14.38;8.30;;;;;;;;;;2584918;23;20008;-90
2023/09/24 05:06:08;;;;;;;13.45;8.63;;;;;;;;;;2598161;22;20364;-90
2023/09/24 05:07:09;;;;;;;12.60;8.68;;;;;;;;;;2581460;23;20004;-91
2023/09/24 05:08:09;;;;;;;12.25;8.65;;;;;;;;;;2568598;23;20008;-91
2023/09/24 05:09:10;;;;;;;16.15;8.35;;;;;;;;;;2581252;23;20347;-91
2023/09/24 05:10:10;;;;;;;14.63;9.27;;;;;;;;;;2594197;22;20007;-91
2023/09/24 05:11:14;;;;;;;14.85;8.95;;;;;;;;;;2581273;22;20496;-91
2023/09/24 05:12:14;;;;;;;17.70;8.90;;;;;;;;;;2583992;22;20074;-92
2023/09/24 05:13:15;;;;;;;15.07;9.30;;;;;;;;;;2596992;22;20066;-91
2023/09/24 05:14:15;;;;;;;17.25;9.32;;;;;;;;;;2580993;23;20051;-91
2023/09/24 05:15:16;;;;;;;11.82;8.82;;;;;;;;;;2583687;23;20377;-91
2023/09/24 05:16:16;;;;;;;14.85;8.98;;;;;;;;;;2594054;22;20542;-91
2023/09/24 05:17:17;;;;;;;14.75;8.85;;;;;;;;;;2596035;22;20000;-91
2023/09/24 05:18:17;;;;;;;14.73;8.98;;;;;;;;;;2581305;23;20103;-90
2023/09/24 05:19:18;;;;;;;13.52;8.77;;;;;;;;;;2568804;23;20012;-90
2023/09/24 05:20:18;;;;;;;11.35;8.52;;;;;;;;;;2583243;23;20485;-91
2023/09/24 05:21:19;;;;;;;18.75;9.32;;;;;;;;;;2596718;22;20499;-91
2023/09/24 05:22:19;;;;;;;12.55;8.55;;;;;;;;;;2596683;22;20006;-92
2023/09/24 05:23:22;;;;;;;13.73;8.63;;;;;;;;;;2581202;23;20004;-91
2023/09/24 05:24:22;;;;;;;14.15;8.85;;;;;;;;;;2568965;23;20040;-91
2023/09/24 05:25:23;;;;;;;12.38;8.52;;;;;;;;;;2567169;23;20005;-89
2023/09/24 05:26:23;;;;;;;14.05;8.95;;;;;;;;;;2581521;23;20019;-90
2023/09/24 05:27:26;;;;;;;16.98;9.27;;;;;;;;;;2596190;22;20518;-92
2023/09/24 05:28:26;;;;;;;14.00;8.60;;;;;;;;;;2581980;23;20059;-92
2023/09/24 05:29:27;;;;;;;16.60;8.95;;;;;;;;;;2570287;23;20020;-93
2023/09/24 05:30:27;;;;;;;12.38;8.82;;;;;;;;;;2584960;23;20008;-91
2023/09/24 05:31:28;;;;;;;12.73;8.77;;;;;;;;;;2582348;23;20083;-93
2023/09/24 05:32:28;;;;;;;15.05;9.10;;;;;;;;;;2583293;23;20097;-91
2023/09/24 05:33:29;;;;;;;16.73;9.27;;;;;;;;;;2595375;22;20546;-92
2023/09/24 05:34:30;;;;;;;21.08;10.27;;;;;;;;;;2582470;23;20008;-92
2023/09/24 05:35:31;;;;;;;13.88;8.50;;;;;;;;;;2557495;23;20009;-92
2023/09/24 05:36:32;;;;;;;14.52;8.73;;;;;;;;;;2570662;22;20007;-93
2023/09/24 05:37:36;;;;;;;15.20;8.50;;;;;;;;;;2582679;23;20083;-93
2023/09/24 05:38:37;;;;;;;13.63;9.05;;;;;;;;;;2570324;23;20008;-92
2023/09/24 05:39:40;;;;;;;12.13;8.90;;;;;;;;;;2582715;23;20011;-93
2023/09/24 05:40:47;;;;;;;11.80;8.48;;;;;;;;;;2581942;23;20466;-93
2023/09/24 05:41:48;;;;;;;14.98;9.52;;;;;;;;;;2574288;23;20083;-93
2023/09/24 05:42:48;;;;;;;15.75;9.18;;;;;;;;;;2569611;23;20457;-93
2023/09/24 05:43:48;;;;;;;13.07;8.93;;;;;;;;;;2569796;23;20063;-93
2023/09/24 05:44:49;;;;;;;15.85;9.27;;;;;;;;;;2581888;23;20354;-93
2023/09/24 05:45:50;;;;;;;16.27;11.02;;;;;;;;;;2564454;23;20019;-93
2023/09/24 05:46:51;;;;;;;14.40;8.68;;;;;;;;;;2582048;23;20078;-93
2023/09/24 05:47:51;;;;;;;14.88;8.80;;;;;;;;;;2585076;23;19995;-93
2023/09/24 05:48:55;;;;;;;17.30;8.77;;;;;;;;;;2582176;23;20034;-93
2023/09/24 05:49:55;;;;;;;14.07;8.50;;;;;;;;;;2582104;23;20002;-93
2023/09/24 05:50:55;;;;;;;19.08;9.40;;;;;;;;;;2569681;23;20008;-92
2023/09/24 05:51:56;;;;;;;17.27;10.70;;;;;;;;;;2559817;23;20008;-91
2023/09/24 05:52:56;;;;;;;18.55;9.10;;;;;;;;;;2560650;23;20012;-92
2023/09/24 05:53:57;;;;;;;13.65;8.50;;;;;;;;;;2558667;23;20151;-93
2023/09/24 05:54:58;;;;;;;15.90;8.48;;;;;;;;;;2557312;23;20005;-93
2023/09/24 05:56:01;;;;;;;20.10;10.50;;;;;;;;;;2116123;23;10338958;-92
2023/09/24 05:57:03;;;;;;;15.57;8.57;;;;;;;;;;2573037;23;20012;-93
2023/09/24 05:58:05;;;;;;;13.10;8.13;;;;;;;;;;2585030;23;20008;-94
2023/09/24 05:59:05;;;;;;;16.67;7.82;;;;;;;;;;2569217;23;20466;-93
2023/09/24 06:00:08;;;;;;;18.42;8.90;;;;;;;;;;2570165;23;20000;-92
2023/09/24 06:01:14;;;;;;;13.80;7.55;;;;;;;;;;2589087;23;20043;-93
2023/09/24 06:02:15;;;;;;;15.93;8.75;;;;;;;;;;2577489;23;20031;-93